Silverton, Idaho
Current Conditions -  °F | °C
As of 4:32 AM on Monday 24 Nov 2014 (Local Time) from KMLP Reporting Station
Moderate Fog Moderate Fog  
Wind Chill: 24°   Ceiling: 100
Heat Index: 24°   Visibility: 0.5mi
Dew Point: 21°   Wind: 3mph
Humidity: 88%   Direction: 350°N
Pressure: 30.12"   Gusts: NA
Location:  47.49°N, 115.95°W
Report Text: KMLP 241232Z AUTO 35003KT 1/2SM FZFG VV001 M04/M06 A3012 RMK AO2 T10441061
Loading
Personal Weather Stations






























Interactive Weather Map New forecast layout! Learn more

10-Day Weather Forecast

Advertisements
Track Severe Weather on mobile